Time;durP1;ratioP1;P1;durP2;ratioP2;P2;SDS_P1;SDS_P2;PMS_P1;PMS_P2;Temp;Humidity;BMP_temperature;BMP_pressure;BME280_temperature;BME280_humidity;BME280_pressure;Samples;Min_cycle;Max_cycle;Signal;HPM_P1;HPM_P2
2021/06/24 00:00:38;;;;;;;44.15;28.20;;;15.00;99.90;;;;;;4986980;28;20035;-61
2021/06/24 00:03:05;;;;;;;39.45;27.05;;;15.00;99.90;;;;;;4979356;28;20543;-64
2021/06/24 00:05:31;;;;;;;35.67;26.92;;;14.90;99.90;;;;;;4981802;28;20172;-65
2021/06/24 00:07:57;;;;;;;40.42;27.45;;;14.90;99.90;;;;;;4988383;28;20030;-62
2021/06/24 00:10:22;;;;;;;38.38;26.25;;;14.90;99.90;;;;;;4983066;28;20117;-63
2021/06/24 00:12:48;;;;;;;48.58;28.13;;;14.80;99.90;;;;;;4983856;28;20042;-65
2021/06/24 00:15:15;;;;;;;48.78;30.20;;;14.80;99.90;;;;;;4985733;28;20030;-65
2021/06/24 00:17:40;;;;;;;47.20;30.13;;;14.70;99.90;;;;;;4985076;28;20026;-65
2021/06/24 00:20:07;;;;;;;43.40;28.52;;;14.60;99.90;;;;;;4984389;28;20077;-63
2021/06/24 00:22:33;;;;;;;47.95;30.38;;;14.60;99.90;;;;;;4986673;28;20019;-65
2021/06/24 00:24:58;;;;;;;41.13;29.67;;;14.50;99.90;;;;;;4973621;28;20093;-65
2021/06/24 00:27:24;;;;;;;39.88;30.00;;;14.40;99.90;;;;;;4985917;28;20027;-64
2021/06/24 00:29:49;;;;;;;43.50;31.33;;;14.40;99.90;;;;;;4983378;28;20133;-63
2021/06/24 00:32:15;;;;;;;43.40;27.40;;;14.40;99.90;;;;;;4985607;28;20034;-65
2021/06/24 00:34:40;;;;;;;53.42;33.00;;;14.40;99.90;;;;;;4985102;28;20034;-64
2021/06/24 00:37:06;;;;;;;51.30;33.47;;;14.30;99.90;;;;;;4984900;28;20484;-65
2021/06/24 00:39:31;;;;;;;48.88;32.35;;;14.30;99.90;;;;;;4974728;28;20030;-65
2021/06/24 00:41:57;;;;;;;44.38;29.63;;;14.30;99.90;;;;;;4973567;28;20031;-66
2021/06/24 00:44:23;;;;;;;45.28;29.17;;;14.40;99.90;;;;;;4981655;28;22006;-63
2021/06/24 00:46:52;;;;;;;53.55;31.00;;;14.40;99.90;;;;;;4987394;28;20334;-65
2021/06/24 00:49:18;;;;;;;45.13;28.90;;;14.40;99.90;;;;;;4984110;28;20037;-67
2021/06/24 00:51:44;;;;;;;42.00;28.77;;;14.40;99.90;;;;;;4987083;28;20157;-66
2021/06/24 00:54:10;;;;;;;49.88;29.52;;;14.40;99.90;;;;;;4983281;28;20109;-65
2021/06/24 00:56:35;;;;;;;44.75;29.60;;;14.40;99.90;;;;;;4972699;28;20034;-63
2021/06/24 00:59:03;;;;;;;44.85;29.42;;;14.30;99.90;;;;;;4987457;28;20049;-64
2021/06/24 01:01:31;;;;;;;45.40;28.30;;;14.30;99.90;;;;;;4989189;28;20019;-66
2021/06/24 01:03:57;;;;;;;45.63;29.50;;;14.30;99.90;;;;;;4986529;28;20029;-64
2021/06/24 01:06:22;;;;;;;37.00;28.63;;;14.20;99.90;;;;;;4985547;28;20102;-67
2021/06/24 01:08:48;;;;;;;38.20;28.67;;;14.30;99.90;;;;;;4980177;28;20096;-66
2021/06/24 01:11:14;;;;;;;42.47;28.38;;;14.40;99.90;;;;;;4979101;28;20353;-65
2021/06/24 01:13:41;;;;;;;41.38;27.60;;;14.50;99.90;;;;;;4988888;28;20062;-64
2021/06/24 01:16:06;;;;;;;36.95;26.27;;;14.60;99.90;;;;;;4982718;28;20037;-65
2021/06/24 01:18:32;;;;;;;37.45;26.13;;;14.70;99.90;;;;;;4985841;28;20022;-64
2021/06/24 01:20:58;;;;;;;36.80;24.58;;;14.80;99.90;;;;;;4983422;28;20018;-66
2021/06/24 01:23:23;;;;;;;38.72;23.88;;;14.90;99.90;;;;;;4976842;28;20499;-67
2021/06/24 01:25:49;;;;;;;34.65;23.60;;;14.90;99.90;;;;;;4974004;28;20559;-66
2021/06/24 01:28:14;;;;;;;34.30;22.92;;;15.00;99.90;;;;;;4978818;28;20085;-66
2021/06/24 01:30:41;;;;;;;30.83;22.70;;;15.10;99.90;;;;;;4993847;28;20038;-65
2021/06/24 01:33:09;;;;;;;33.85;22.45;;;15.10;99.90;;;;;;4978959;28;20154;-64
2021/06/24 01:35:35;;;;;;;31.80;21.80;;;15.10;99.90;;;;;;4983710;28;20034;-64
2021/06/24 01:38:04;;;;;;;30.85;22.45;;;15.10;99.90;;;;;;4986280;28;20076;-65
2021/06/24 01:40:31;;;;;;;31.27;22.80;;;15.10;99.90;;;;;;4978865;28;20501;-67
2021/06/24 01:42:57;;;;;;;32.50;21.83;;;15.10;99.90;;;;;;4988407;28;20026;-64
2021/06/24 01:45:23;;;;;;;32.45;22.80;;;15.10;99.90;;;;;;4981158;28;20030;-64
2021/06/24 01:47:49;;;;;;;30.73;22.60;;;15.10;99.90;;;;;;4985395;28;20397;-66
2021/06/24 01:50:16;;;;;;;31.35;23.88;;;15.20;99.90;;;;;;4988293;28;20054;-64
2021/06/24 01:52:46;;;;;;;27.35;20.92;;;15.10;99.90;;;;;;4980314;28;20496;-63
2021/06/24 01:55:13;;;;;;;32.72;22.15;;;15.20;99.90;;;;;;4975132;28;20027;-64
2021/06/24 01:57:39;;;;;;;31.00;22.45;;;15.20;99.90;;;;;;4976035;28;20027;-66
2021/06/24 02:00:13;;;;;;;30.45;20.88;;;15.20;99.90;;;;;;4986095;28;20104;-64
2021/06/24 02:02:39;;;;;;;28.13;22.13;;;15.30;99.90;;;;;;4984584;28;20391;-64
2021/06/24 02:05:06;;;;;;;34.80;22.63;;;15.30;99.90;;;;;;4982333;28;20122;-64
2021/06/24 02:07:32;;;;;;;31.13;21.85;;;15.30;99.90;;;;;;4986454;28;20027;-65
2021/06/24 02:09:57;;;;;;;32.25;21.48;;;15.30;99.90;;;;;;4974113;28;20399;-66
2021/06/24 02:12:23;;;;;;;29.80;21.42;;;15.30;99.90;;;;;;4984717;28;20049;-63
2021/06/24 02:14:48;;;;;;;33.95;21.55;;;15.40;99.90;;;;;;4976444;28;20022;-65
2021/06/24 02:17:14;;;;;;;34.20;21.50;;;15.40;99.90;;;;;;5003175;23;20113;-66
2021/06/24 02:19:39;;;;;;;29.38;21.08;;;15.40;99.90;;;;;;4978326;28;20030;-65
2021/06/24 02:22:05;;;;;;;28.17;20.40;;;15.50;99.90;;;;;;4975556;28;20465;-65
2021/06/24 02:24:31;;;;;;;27.90;20.52;;;15.50;99.90;;;;;;4975040;28;20023;-66
2021/06/24 02:26:56;;;;;;;30.80;21.92;;;15.50;99.90;;;;;;4974218;28;20113;-65
2021/06/24 02:29:22;;;;;;;32.17;21.45;;;15.50;99.90;;;;;;4973994;28;20453;-66
2021/06/24 02:31:47;;;;;;;29.08;21.50;;;15.50;99.90;;;;;;4974339;28;20038;-66
2021/06/24 02:34:16;;;;;;;30.35;22.33;;;15.50;99.90;;;;;;4974024;28;20034;-65
2021/06/24 02:36:42;;;;;;;28.60;20.90;;;15.50;99.90;;;;;;4973893;28;20484;-66
2021/06/24 02:39:07;;;;;;;29.48;20.95;;;15.50;99.90;;;;;;4972764;28;20034;-65
2021/06/24 02:41:35;;;;;;;29.80;20.48;;;15.50;99.90;;;;;;4956234;28;20039;-66
2021/06/24 02:44:02;;;;;;;32.30;21.75;;;15.50;99.90;;;;;;4973492;28;20110;-66
2021/06/24 02:46:27;;;;;;;34.13;21.95;;;15.50;99.90;;;;;;4974257;28;20023;-66
2021/06/24 02:48:53;;;;;;;28.55;20.63;;;15.50;99.90;;;;;;4973114;28;20131;-66
2021/06/24 02:51:19;;;;;;;26.60;19.98;;;15.60;99.90;;;;;;4973738;28;20547;-66
2021/06/24 02:53:44;;;;;;;26.00;19.55;;;15.60;99.90;;;;;;4974402;28;20042;-66
2021/06/24 02:56:10;;;;;;;30.90;20.55;;;15.60;99.90;;;;;;4973903;28;20503;-66
2021/06/24 02:58:35;;;;;;;28.45;19.85;;;15.60;99.90;;;;;;4970875;28;20509;-66
2021/06/24 03:01:02;;;;;;;30.15;20.98;;;15.50;99.90;;;;;;4956483;28;20121;-66
2021/06/24 03:03:27;;;;;;;29.17;19.77;;;15.50;99.90;;;;;;4972797;28;20026;-66
2021/06/24 03:05:53;;;;;;;31.90;20.77;;;15.50;99.90;;;;;;4975757;28;20425;-65
2021/06/24 03:08:19;;;;;;;32.65;22.95;;;15.50;99.90;;;;;;4961266;28;20097;-65
2021/06/24 03:10:45;;;;;;;35.63;23.30;;;15.50;99.90;;;;;;4973119;28;20389;-66
2021/06/24 03:13:11;;;;;;;30.25;18.52;;;15.50;99.90;;;;;;4956655;28;20042;-66
2021/06/24 03:15:37;;;;;;;25.67;20.90;;;15.60;99.90;;;;;;4973414;28;20038;-66
2021/06/24 03:18:04;;;;;;;28.95;22.85;;;15.60;99.90;;;;;;4956798;28;20760;-64
2021/06/24 03:20:29;;;;;;;30.38;21.70;;;15.60;99.90;;;;;;4972938;28;20026;-66
2021/06/24 03:22:59;;;;;;;34.78;23.48;;;15.50;99.90;;;;;;4956981;28;20126;-66
2021/06/24 03:25:26;;;;;;;42.90;23.25;;;15.50;99.90;;;;;;4973405;28;20023;-66
2021/06/24 03:27:52;;;;;;;34.58;24.50;;;15.50;99.90;;;;;;4972287;28;20031;-65
2021/06/24 03:30:19;;;;;;;34.10;23.15;;;15.50;99.90;;;;;;4969921;28;20038;-66
2021/06/24 03:32:44;;;;;;;36.88;24.40;;;15.50;99.90;;;;;;4972979;28;20038;-66
2021/06/24 03:35:10;;;;;;;34.20;24.02;;;15.50;99.90;;;;;;4972810;28;20026;-66
2021/06/24 03:37:36;;;;;;;32.90;23.15;;;15.50;99.90;;;;;;4973275;28;20034;-65
2021/06/24 03:40:06;;;;;;;28.52;22.02;;;15.50;99.90;;;;;;4972476;28;20477;-65
2021/06/24 03:42:31;;;;;;;34.65;23.40;;;15.50;99.90;;;;;;4973083;28;20110;-65
2021/06/24 03:44:57;;;;;;;30.70;21.35;;;15.50;99.90;;;;;;4973280;28;20103;-65
2021/06/24 03:47:23;;;;;;;31.92;24.00;;;15.50;99.90;;;;;;4973179;28;20517;-65
2021/06/24 03:49:48;;;;;;;34.40;23.40;;;15.50;99.90;;;;;;4972365;28;20035;-65
2021/06/24 03:52:14;;;;;;;36.58;23.45;;;15.60;99.90;;;;;;4972081;28;20426;-66
2021/06/24 03:54:40;;;;;;;35.28;22.17;;;15.60;99.90;;;;;;4972983;28;20076;-65
2021/06/24 03:57:06;;;;;;;32.10;22.45;;;15.60;99.90;;;;;;4972287;28;20113;-66
2021/06/24 03:59:31;;;;;;;32.28;22.73;;;15.60;99.90;;;;;;4972497;28;20054;-66
2021/06/24 04:01:57;;;;;;;35.15;21.92;;;15.60;99.90;;;;;;4972576;28;20086;-65
2021/06/24 04:04:22;;;;;;;37.15;22.80;;;15.60;99.90;;;;;;4972594;28;20081;-65
2021/06/24 04:06:48;;;;;;;34.85;22.60;;;15.60;99.90;;;;;;4972168;28;20073;-66
2021/06/24 04:09:14;;;;;;;30.20;22.52;;;15.60;99.90;;;;;;4972105;28;20034;-66
2021/06/24 04:11:40;;;;;;;39.15;24.23;;;15.70;99.90;;;;;;4972424;28;20126;-66
2021/06/24 04:14:05;;;;;;;30.88;22.20;;;15.60;99.90;;;;;;4972105;28;20540;-66
2021/06/24 04:16:31;;;;;;;34.08;23.10;;;15.60;99.90;;;;;;4956839;28;20026;-66
2021/06/24 04:18:56;;;;;;;41.13;24.45;;;15.60;99.90;;;;;;4971553;28;20053;-66
2021/06/24 04:21:22;;;;;;;34.28;21.80;;;15.60;99.90;;;;;;4955306;28;20046;-66
2021/06/24 04:23:48;;;;;;;37.60;23.23;;;15.60;99.90;;;;;;4972371;28;20062;-66
2021/06/24 04:26:13;;;;;;;39.85;23.08;;;15.70;99.90;;;;;;4971767;28;20030;-65
2021/06/24 04:28:39;;;;;;;33.63;23.77;;;15.70;99.90;;;;;;4970260;28;20038;-64
2021/06/24 04:31:06;;;;;;;34.65;23.45;;;15.70;99.90;;;;;;4971696;28;20046;-65
2021/06/24 04:33:32;;;;;;;29.23;22.52;;;15.80;99.90;;;;;;4971427;28;20081;-65
2021/06/24 04:35:57;;;;;;;36.08;23.23;;;15.80;99.90;;;;;;4970827;28;20031;-65
2021/06/24 04:38:23;;;;;;;32.28;23.02;;;15.80;99.90;;;;;;4971895;28;20039;-66
2021/06/24 04:40:48;;;;;;;36.58;22.95;;;15.90;99.90;;;;;;4972096;28;20453;-66
2021/06/24 04:43:14;;;;;;;32.33;22.52;;;15.80;99.90;;;;;;4971352;28;20019;-66
2021/06/24 04:45:40;;;;;;;36.55;21.95;;;15.80;99.90;;;;;;4971237;28;20440;-65
2021/06/24 04:48:06;;;;;;;34.90;22.02;;;15.80;99.90;;;;;;4972039;28;20126;-65
2021/06/24 04:50:32;;;;;;;37.42;23.33;;;15.80;99.90;;;;;;4969237;28;20085;-66
2021/06/24 04:52:57;;;;;;;33.58;23.83;;;15.80;99.90;;;;;;4970376;28;20026;-66
2021/06/24 04:55:23;;;;;;;37.45;23.00;;;15.90;99.90;;;;;;4971664;28;20035;-65
2021/06/24 04:57:49;;;;;;;32.88;23.02;;;15.90;99.90;;;;;;4970211;28;20035;-66
2021/06/24 05:00:15;;;;;;;31.92;23.02;;;16.00;99.90;;;;;;4970829;28;20045;-67
2021/06/24 05:02:41;;;;;;;37.75;22.73;;;16.00;99.90;;;;;;4971017;28;20034;-65
2021/06/24 05:05:08;;;;;;;32.33;22.80;;;16.10;99.90;;;;;;4966120;28;20088;-66
2021/06/24 05:07:38;;;;;;;30.60;21.70;;;16.10;99.90;;;;;;4969743;28;20073;-66
2021/06/24 05:10:06;;;;;;;39.83;22.92;;;16.10;99.90;;;;;;4971264;28;20014;-65
2021/06/24 05:12:31;;;;;;;32.58;22.05;;;16.20;99.90;;;;;;4971180;28;20042;-66
2021/06/24 05:14:57;;;;;;;33.75;22.70;;;16.20;99.90;;;;;;4969817;28;20031;-66
2021/06/24 05:17:22;;;;;;;33.20;21.38;;;16.20;99.90;;;;;;4971128;28;20547;-66
2021/06/24 05:19:48;;;;;;;28.77;21.67;;;16.30;99.90;;;;;;4970465;28;20031;-65
2021/06/24 05:22:15;;;;;;;35.88;22.42;;;16.30;99.90;;;;;;4968005;28;20055;-65
2021/06/24 05:24:41;;;;;;;32.35;22.10;;;16.30;99.90;;;;;;4971628;28;20030;-66
2021/06/24 05:27:07;;;;;;;38.28;24.02;;;16.40;99.90;;;;;;4970517;28;20054;-66
2021/06/24 05:29:33;;;;;;;37.08;22.73;;;16.40;99.90;;;;;;4971350;28;20133;-66
2021/06/24 05:31:59;;;;;;;40.78;23.58;;;16.50;99.90;;;;;;4971594;28;20147;-66
2021/06/24 05:34:24;;;;;;;34.72;22.88;;;16.50;99.90;;;;;;4972196;28;20022;-66
2021/06/24 05:36:50;;;;;;;31.88;23.75;;;16.40;99.90;;;;;;4971738;28;20404;-67
2021/06/24 05:39:15;;;;;;;30.67;22.80;;;16.40;99.90;;;;;;4971336;28;20631;-66
2021/06/24 05:41:41;;;;;;;35.15;22.92;;;16.40;99.90;;;;;;4971444;28;20481;-65
2021/06/24 05:44:07;;;;;;;34.72;22.95;;;16.40;99.90;;;;;;4954071;28;20381;-66
2021/06/24 05:46:32;;;;;;;31.17;23.35;;;16.50;99.90;;;;;;4971554;28;20077;-65
2021/06/24 05:48:58;;;;;;;35.10;23.30;;;16.40;99.90;;;;;;4954352;28;20381;-66
2021/06/24 05:51:23;;;;;;;36.50;24.38;;;16.40;99.90;;;;;;4968931;28;20034;-66
2021/06/24 05:53:52;;;;;;;37.60;25.27;;;16.40;99.90;;;;;;4971704;28;20062;-64
2021/06/24 05:56:19;;;;;;;39.78;26.05;;;16.40;99.90;;;;;;4971227;28;20385;-66
2021/06/24 05:58:45;;;;;;;39.97;26.88;;;16.40;99.90;;;;;;4968443;28;20038;-66
2021/06/24 06:01:11;;;;;;;42.97;27.98;;;16.40;99.90;;;;;;4968725;28;20031;-67
2021/06/24 06:03:36;;;;;;;35.40;25.30;;;16.30;99.90;;;;;;4968775;28;20531;-67
2021/06/24 06:06:04;;;;;;;38.97;27.33;;;16.30;99.90;;;;;;4968217;28;20027;-67
2021/06/24 06:08:30;;;;;;;42.88;25.85;;;16.40;99.90;;;;;;4970004;28;20031;-67
2021/06/24 06:10:56;;;;;;;39.83;24.83;;;16.40;99.90;;;;;;4971971;28;20023;-67
2021/06/24 06:13:21;;;;;;;34.13;24.67;;;16.40;99.90;;;;;;4971392;28;20030;-66
2021/06/24 06:15:49;;;;;;;39.25;25.70;;;16.50;99.90;;;;;;4974835;28;20404;-66
2021/06/24 06:18:25;;;;;;;40.05;27.20;;;16.50;99.90;;;;;;4974493;28;20426;-66
2021/06/24 06:20:52;;;;;;;38.75;28.23;;;16.50;99.90;;;;;;4974579;28;20069;-66
2021/06/24 06:23:20;;;;;;;41.63;27.67;;;16.40;99.90;;;;;;4974460;28;20026;-66
2021/06/24 06:25:47;;;;;;;42.80;27.35;;;16.50;99.90;;;;;;4974641;28;20015;-66
2021/06/24 06:28:14;;;;;;;50.53;28.52;;;16.50;99.90;;;;;;4974307;28;20111;-66
2021/06/24 06:30:41;;;;;;;46.40;26.65;;;16.50;99.90;;;;;;4974482;28;20031;-66
2021/06/24 06:33:08;;;;;;;41.10;24.90;;;16.50;99.90;;;;;;4974700;28;20030;-67
2021/06/24 06:35:34;;;;;;;41.70;26.48;;;16.50;99.90;;;;;;4974340;28;20031;-66
2021/06/24 06:37:59;;;;;;;43.38;26.23;;;16.50;99.90;;;;;;4974243;28;20515;-67
2021/06/24 06:40:25;;;;;;;41.22;24.88;;;16.50;99.90;;;;;;4974135;28;20491;-66
2021/06/24 06:42:50;;;;;;;35.40;25.55;;;16.60;99.90;;;;;;4974364;28;20031;-66
2021/06/24 06:45:21;;;;;;;36.30;26.15;;;16.60;99.90;;;;;;4974279;28;20349;-66
2021/06/24 06:47:47;;;;;;;42.97;28.33;;;16.60;99.90;;;;;;4974439;28;20031;-67
2021/06/24 06:50:15;;;;;;;35.95;25.90;;;16.60;99.90;;;;;;4973899;28;20035;-67
2021/06/24 06:52:41;;;;;;;37.95;27.55;;;16.60;99.90;;;;;;4974249;28;20035;-67
2021/06/24 06:55:07;;;;;;;36.38;25.70;;;16.70;99.90;;;;;;4973338;28;20096;-66
2021/06/24 06:57:32;;;;;;;41.53;27.45;;;16.70;99.90;;;;;;4974086;28;20030;-66
2021/06/24 06:59:58;;;;;;;38.67;26.52;;;16.80;99.90;;;;;;4956452;28;20034;-67
2021/06/24 07:02:24;;;;;;;46.75;29.40;;;16.80;99.90;;;;;;4968151;28;20031;-65
2021/06/24 07:04:49;;;;;;;48.08;27.85;;;16.80;99.90;;;;;;4973127;28;20045;-67
2021/06/24 07:07:15;;;;;;;40.53;25.92;;;16.90;99.90;;;;;;4973571;28;20073;-66
2021/06/24 07:09:41;;;;;;;40.42;27.52;;;17.00;99.90;;;;;;4973750;28;20101;-66
2021/06/24 07:12:08;;;;;;;43.40;28.77;;;17.10;99.90;;;;;;4973957;28;20038;-67
2021/06/24 07:14:34;;;;;;;42.75;27.77;;;17.10;99.90;;;;;;4973848;28;20035;-67
2021/06/24 07:16:59;;;;;;;54.58;29.30;;;17.10;99.90;;;;;;4973855;28;20061;-66
2021/06/24 07:19:25;;;;;;;97.93;33.05;;;17.20;99.90;;;;;;4972125;28;20475;-67
2021/06/24 07:21:51;;;;;;;81.28;33.50;;;17.30;99.90;;;;;;4970801;28;20063;-67
2021/06/24 07:24:18;;;;;;;47.97;29.80;;;17.30;99.90;;;;;;4973741;28;20077;-66
2021/06/24 07:26:44;;;;;;;77.40;33.90;;;17.30;99.90;;;;;;4972957;28;20062;-66
2021/06/24 07:29:09;;;;;;;48.30;31.95;;;17.30;99.90;;;;;;4972856;28;20058;-66
2021/06/24 07:31:35;;;;;;;51.50;33.70;;;17.30;99.90;;;;;;4973275;28;20031;-66
2021/06/24 07:34:00;;;;;;;48.80;30.73;;;17.30;99.90;;;;;;4973295;28;20030;-67
2021/06/24 07:36:26;;;;;;;45.75;31.05;;;17.30;99.90;;;;;;4972731;28;20432;-66
2021/06/24 07:38:51;;;;;;;66.70;32.22;;;17.40;99.90;;;;;;4973643;28;20062;-65
2021/06/24 07:41:17;;;;;;;148.30;42.13;;;17.40;99.90;;;;;;4949563;28;20030;-66
2021/06/24 07:43:43;;;;;;;45.65;31.85;;;17.40;99.90;;;;;;4955590;28;20469;-65
2021/06/24 07:46:08;;;;;;;43.15;31.70;;;17.50;99.90;;;;;;4973225;28;20022;-66
2021/06/24 07:48:34;;;;;;;44.28;31.88;;;17.50;99.90;;;;;;4973037;28;20034;-67
2021/06/24 07:50:59;;;;;;;40.63;30.77;;;17.60;99.90;;;;;;4972652;28;20034;-66
2021/06/24 07:53:25;;;;;;;48.30;33.10;;;17.70;99.90;;;;;;4972858;28;20086;-66
2021/06/24 07:55:50;;;;;;;42.83;31.13;;;17.70;99.90;;;;;;4972855;28;20096;-66
2021/06/24 07:58:16;;;;;;;47.85;33.58;;;17.70;99.90;;;;;;4972201;28;20034;-67
2021/06/24 08:00:42;;;;;;;48.90;33.22;;;17.80;99.90;;;;;;4972975;28;20030;-66
2021/06/24 08:03:07;;;;;;;49.35;32.60;;;17.80;99.90;;;;;;4973077;28;20037;-66
2021/06/24 08:05:33;;;;;;;51.38;33.15;;;17.90;99.90;;;;;;4972448;28;20027;-66
2021/06/24 08:07:59;;;;;;;49.35;35.45;;;17.80;99.90;;;;;;4971846;28;20113;-66
2021/06/24 08:10:25;;;;;;;49.05;33.65;;;17.80;99.90;;;;;;4965382;28;20046;-66
2021/06/24 08:12:51;;;;;;;51.40;36.08;;;17.70;99.90;;;;;;4969978;28;20027;-66
2021/06/24 08:15:18;;;;;;;42.80;31.50;;;17.80;99.90;;;;;;4971765;28;20034;-66
2021/06/24 08:17:45;;;;;;;44.42;32.95;;;17.90;99.90;;;;;;5009650;23;20096;-60
2021/06/24 08:20:12;;;;;;;49.95;36.58;;;18.00;99.90;;;;;;4967406;28;20030;-60
2021/06/24 08:22:38;;;;;;;53.05;35.20;;;18.10;99.90;;;;;;4989159;28;20358;-56
2021/06/24 08:25:05;;;;;;;47.30;34.85;;;18.10;99.90;;;;;;4990261;28;20111;-61
2021/06/24 08:27:31;;;;;;;52.22;34.55;;;18.10;99.90;;;;;;4978471;28;20106;-58
2021/06/24 08:29:57;;;;;;;50.65;36.13;;;18.20;99.90;;;;;;4971245;28;20500;-59
2021/06/24 08:32:23;;;;;;;45.70;35.15;;;18.30;99.90;;;;;;4971036;28;20089;-59
2021/06/24 08:34:49;;;;;;;51.65;36.17;;;18.20;99.90;;;;;;4970200;28;20396;-57
2021/06/24 08:37:14;;;;;;;55.83;36.78;;;18.20;99.90;;;;;;4971878;28;20541;-59
2021/06/24 08:39:40;;;;;;;49.72;35.95;;;18.20;99.90;;;;;;4971129;28;20035;-60
2021/06/24 08:42:06;;;;;;;45.10;34.40;;;18.30;99.90;;;;;;4971609;28;20037;-61
2021/06/24 08:44:33;;;;;;;48.95;33.83;;;18.30;99.90;;;;;;4969767;28;20031;-60
2021/06/24 08:46:59;;;;;;;48.40;35.67;;;18.40;99.90;;;;;;4971308;28;20085;-60
2021/06/24 08:49:27;;;;;;;44.50;34.08;;;18.50;99.90;;;;;;4977182;28;20452;-60
2021/06/24 08:51:55;;;;;;;38.92;31.83;;;18.50;99.90;;;;;;4972601;28;20038;-57
2021/06/24 08:54:21;;;;;;;45.90;30.73;;;18.60;99.90;;;;;;4969590;28;20058;-59
2021/06/24 08:56:48;;;;;;;44.70;34.33;;;18.70;99.90;;;;;;4971468;28;20033;-58
2021/06/24 08:59:14;;;;;;;45.28;33.22;;;18.70;99.90;;;;;;4968101;28;20039;-59
2021/06/24 09:01:54;;;;;;;47.67;33.80;;;18.70;99.90;;;;;;4971397;28;20026;-59
2021/06/24 09:04:24;;;;;;;48.90;32.13;;;18.70;99.90;;;;;;4970770;28;20073;-59
2021/06/24 09:06:51;;;;;;;47.67;33.92;;;18.70;99.90;;;;;;4968133;28;20113;-57
2021/06/24 09:09:28;;;;;;;46.08;32.97;;;18.80;99.90;;;;;;4970986;28;20090;-59
2021/06/24 09:12:03;;;;;;;46.33;32.58;;;18.80;99.90;;;;;;4971412;28;20038;-55
2021/06/24 09:14:47;;;;;;;48.25;34.60;;;18.70;99.90;;;;;;4963735;28;20069;-59
2021/06/24 09:17:34;;;;;;;49.97;35.25;;;18.80;99.90;;;;;;4961315;28;20039;-59
2021/06/24 09:20:01;;;;;;;47.00;33.30;;;18.80;99.90;;;;;;4967324;28;20038;-58
2021/06/24 09:22:27;;;;;;;45.40;33.10;;;18.80;99.90;;;;;;4966966;28;20082;-56
2021/06/24 09:24:52;;;;;;;43.20;34.17;;;18.80;99.90;;;;;;4971180;28;20081;-57
2021/06/24 09:27:18;;;;;;;50.00;34.55;;;18.90;99.90;;;;;;4966735;28;20437;-60
2021/06/24 09:30:06;;;;;;;48.53;34.35;;;19.00;99.90;;;;;;4963946;28;20493;-59
2021/06/24 09:32:45;;;;;;;45.70;31.77;;;19.20;99.90;;;;;;4963028;28;20392;-58
2021/06/24 09:35:31;;;;;;;47.78;34.05;;;19.20;99.90;;;;;;4964223;28;20117;-59
2021/06/24 09:38:07;;;;;;;52.60;32.95;;;19.40;99.90;;;;;;4969037;28;20046;-59
2021/06/24 09:40:44;;;;;;;45.13;34.63;;;19.50;99.90;;;;;;4969449;28;20019;-59
2021/06/24 09:43:14;;;;;;;44.40;31.15;;;19.70;99.90;;;;;;4964899;28;20031;-58
2021/06/24 09:45:39;;;;;;;40.47;29.95;;;19.60;99.90;;;;;;4966436;28;20504;-58
2021/06/24 09:48:10;;;;;;;40.00;30.65;;;19.70;99.90;;;;;;4969844;28;20158;-58
2021/06/24 09:50:36;;;;;;;40.92;30.35;;;19.90;99.90;;;;;;4973159;28;20018;-59
2021/06/24 09:53:13;;;;;;;44.50;31.73;;;20.20;99.90;;;;;;4974422;28;20231;-59
2021/06/24 09:55:40;;;;;;;35.45;28.17;;;20.20;99.90;;;;;;4974110;28;20485;-58
2021/06/24 09:58:16;;;;;;;38.75;27.95;;;20.30;99.90;;;;;;4973749;28;20027;-56
2021/06/24 10:00:49;;;;;;;33.50;24.02;;;20.30;99.90;;;;;;4974835;28;20054;-58
2021/06/24 10:03:15;;;;;;;28.08;23.67;;;20.40;99.90;;;;;;4966243;28;20035;-58
2021/06/24 10:05:42;;;;;;;32.15;25.63;;;20.40;99.90;;;;;;4968918;28;20033;-59
2021/06/24 10:08:08;;;;;;;40.40;30.63;;;20.40;99.90;;;;;;4967406;28;20094;-56
2021/06/24 10:10:35;;;;;;;43.08;32.55;;;20.50;99.90;;;;;;4967489;28;20131;-57
2021/06/24 10:13:00;;;;;;;38.05;28.95;;;20.50;99.90;;;;;;4968891;28;20102;-59
2021/06/24 10:15:28;;;;;;;41.15;30.67;;;20.40;99.90;;;;;;4972325;28;20440;-58
2021/06/24 10:17:55;;;;;;;42.20;32.97;;;20.60;99.90;;;;;;4962342;28;20042;-56
2021/06/24 10:20:21;;;;;;;46.33;34.78;;;20.50;99.90;;;;;;4969110;28;20027;-56
2021/06/24 10:22:56;;;;;;;50.50;39.17;;;20.50;99.90;;;;;;4972730;28;20031;-58
2021/06/24 10:25:23;;;;;;;48.38;40.03;;;20.60;99.90;;;;;;4970504;28;20075;-59
2021/06/24 10:27:53;;;;;;;49.78;41.35;;;20.70;99.90;;;;;;4969895;28;20031;-59
2021/06/24 10:30:21;;;;;;;46.40;39.15;;;20.80;99.90;;;;;;4969509;28;20026;-60
2021/06/24 10:33:03;;;;;;;42.40;33.03;;;20.70;99.90;;;;;;4972655;28;20295;-59
2021/06/24 10:35:33;;;;;;;43.58;34.78;;;20.80;99.90;;;;;;4966058;28;20403;-58
2021/06/24 10:38:00;;;;;;;42.15;32.85;;;20.80;99.90;;;;;;4971396;28;20104;-59
2021/06/24 10:40:34;;;;;;;44.65;32.95;;;20.80;99.90;;;;;;4960739;28;20529;-60
2021/06/24 10:43:02;;;;;;;33.33;24.90;;;20.80;99.90;;;;;;4969195;28;20027;-58
2021/06/24 10:45:28;;;;;;;32.33;26.83;;;20.80;99.90;;;;;;4965043;28;20077;-60
2021/06/24 10:47:56;;;;;;;37.92;30.10;;;20.70;99.90;;;;;;4972204;28;20123;-60
2021/06/24 10:53:17;;;;;;;35.05;26.58;;;21.00;99.90;;;;;;4967402;28;20031;-58
2021/06/24 10:55:47;;;;;;;35.35;27.13;;;21.10;99.90;;;;;;4948178;28;20043;-58
2021/06/24 10:58:12;;;;;;;30.65;22.00;;;21.40;99.90;;;;;;4966822;28;20030;-58
2021/06/24 11:00:43;;;;;;;36.08;22.80;;;21.60;99.90;;;;;;4968928;28;20401;-60
2021/06/24 11:03:13;;;;;;;27.92;20.60;;;21.70;99.90;;;;;;4964936;28;20418;-61
2021/06/24 11:05:42;;;;;;;34.83;22.17;;;21.90;99.90;;;;;;4965646;28;20342;-60
2021/06/24 11:08:12;;;;;;;26.70;19.40;;;22.00;99.90;;;;;;4966320;28;20118;-58
2021/06/24 11:10:57;;;;;;;28.95;20.05;;;21.90;99.90;;;;;;4970006;28;20090;-58
2021/06/24 11:16:10;;;;;;;21.23;15.48;;;22.50;99.90;;;;;;4968569;28;20031;-58
2021/06/24 11:18:36;;;;;;;25.13;19.27;;;22.80;99.90;;;;;;4968211;28;20093;-56
2021/06/24 11:21:03;;;;;;;26.60;17.63;;;22.70;99.90;;;;;;4964298;28;20485;-54
2021/06/24 11:23:36;;;;;;;23.38;17.75;;;22.30;99.90;;;;;;4970578;28;20553;-59
2021/06/24 11:26:16;;;;;;;24.27;15.38;;;22.10;99.90;;;;;;4961652;28;20027;-59
2021/06/24 11:29:05;;;;;;;19.80;15.77;;;22.00;99.90;;;;;;4941261;28;20039;-59
2021/06/24 11:31:44;;;;;;;22.75;16.02;;;22.00;99.90;;;;;;4967402;28;20023;-59
2021/06/24 11:34:30;;;;;;;22.00;15.88;;;22.10;99.90;;;;;;4967563;28;20092;-59
2021/06/24 11:36:58;;;;;;;22.35;15.02;;;21.90;99.90;;;;;;4964025;28;20485;-60
2021/06/24 11:39:33;;;;;;;25.02;15.52;;;22.10;99.90;;;;;;4967787;28;20054;-61
2021/06/24 11:42:04;;;;;;;19.98;15.75;;;22.30;99.90;;;;;;4968328;28;20031;-59
2021/06/24 11:44:32;;;;;;;18.27;14.60;;;22.40;99.90;;;;;;4962512;28;20042;-60
2021/06/24 11:47:12;;;;;;;24.50;16.55;;;22.60;99.90;;;;;;4962400;28;20561;-60
2021/06/24 12:04:06;;;;;;;26.15;18.00;;;22.20;99.90;;;;;;4964744;28;20093;-55
2021/06/24 12:06:48;;;;;;;26.70;19.75;;;22.10;99.90;;;;;;4965048;28;20027;-59
2021/06/24 12:09:20;;;;;;;22.85;17.52;;;22.00;99.90;;;;;;4966513;28;20114;-60
2021/06/24 12:11:47;;;;;;;25.90;16.30;;;21.80;99.90;;;;;;4964159;28;20031;-58
2021/06/24 12:14:17;;;;;;;24.52;16.83;;;21.90;99.90;;;;;;4947703;28;20041;-59
2021/06/24 12:17:12;;;;;;;21.20;15.45;;;21.80;99.90;;;;;;4974916;28;20117;-59
2021/06/24 12:19:57;;;;;;;23.50;15.65;;;21.80;99.90;;;;;;4948002;28;20027;-60
2021/06/24 12:22:48;;;;;;;23.00;14.45;;;21.80;99.90;;;;;;4970765;28;20030;-60
2021/06/24 12:25:22;;;;;;;23.48;14.25;;;21.70;99.90;;;;;;4957080;28;20045;-60
2021/06/24 12:27:56;;;;;;;21.88;15.18;;;21.70;99.90;;;;;;4961960;28;20106;-59
2021/06/24 12:30:26;;;;;;;18.65;14.55;;;21.60;99.90;;;;;;4949559;28;20540;-60
2021/06/24 12:32:56;;;;;;;19.67;14.77;;;21.60;99.90;;;;;;4971271;28;20055;-59
2021/06/24 12:35:26;;;;;;;22.50;15.25;;;21.70;99.90;;;;;;4949726;28;20027;-59
2021/06/24 12:37:54;;;;;;;25.60;16.95;;;21.60;99.90;;;;;;4965968;28;20077;-61
2021/06/24 12:40:21;;;;;;;18.33;14.57;;;21.60;99.90;;;;;;4970194;28;20560;-60
2021/06/24 12:42:56;;;;;;;23.08;15.07;;;21.50;99.90;;;;;;4967664;28;20034;-59
2021/06/24 12:45:27;;;;;;;22.55;15.25;;;21.40;99.90;;;;;;4965207;28;20027;-60
2021/06/24 12:47:55;;;;;;;16.63;12.77;;;21.40;99.90;;;;;;4946664;29;20037;-59